الصفحة الرئيسية
METAR-TAF:

METAR-TAF

مطار :

مطار طوكيو هانيدا الدولي

طوكيو-Haneda, اليابان

دائرة عرض: 35-33N, خط طول: 139-47E, ارتفاع: 5 متر

مراقبة الطقس الحالي

تاريخ ووقت الإصدار 33 دقيقة قبل الساعة 02:11UTC
ريح 10 عقدة من الشمال
درجة الحرارة 15°درجة مئوية
الرطوبة 88%
ضغط 1023 hPa
الرؤية: 7000 متر
غيوم قليلة على ارتفاع 500 قدم
غيوم متفرقة على ارتفاع 1000 قدم
غيوم مفككة على ارتفاع 1300 قدم
مطر خفيف

METAR: RJTT 230211Z 35010KT 7000 R34L/P2000N R22/P2000N R34R/P2000N R23/2000N -RA FEW005 SCT010 BKN013 15/13 Q1023 RMK 1ST005 3SC010 7SC013 A3021

زمن: 11:44 (02:44 UTC)

توقعات

تاريخ ووقت الإصدار 3ساعات و 38 دقيقة قبل الساعة 23:06UTC
التوقعات صالحة من23 الساعة 00 UTC إلى 24 الساعة 06 UTC
ريح 10 عقدة من الشمال/الشمال الشرقي
الرؤية 10 كم أو أكثر
غيوم قليلة على ارتفاع 1500 قدم
غيوم مفككة على ارتفاع 3000 قدم
أصبح
من 24 الساعة 03 UTC إلى 24 الساعة 06 UTC
ريح 8 عقدة من الشرق/الجنوب الشرقي

TAF: RJTT 222306Z 2300/2406 02010KT 9999 FEW015 BKN030 BECMG 2403/2406 12008KT

أرصاد الطقس والتوقعات من أكثر من 4000 مطار (تقارير الطقس للمطار METAR والتنبؤ بالطقس بالمطارTAF).

المحطات المتاحة هي النقط الصفراء والحمراء على الخريطة.

حرك المؤشر فوق النقطة لمعرفة اسم المحطة.

ثم انقر لمعرفة أرصاد وتوقعات الطقس.

لتغيير الخارطة: اضغط على الأزرار الخضراء مع رمز الصليب الأسود للتكبير. على الزر الأخضر مع شرطة للتصغير، أو على الأسهم الخضراء للخرائط المجاورة.


METAR-TAF: